Time;durP1;ratioP1;P1;durP2;ratioP2;P2;SDS_P1;SDS_P2;PMS_P1;PMS_P2;Temp;Humidity;BMP_temperature;BMP_pressure;BME280_temperature;BME280_humidity;BME280_pressure;Samples;Min_cycle;Max_cycle;Signal;HPM_P1;HPM_P2
2021/09/15 00:09:46;;;;;;;6.60;3.77;;;17.20;93.70;;;;;;21060632;27;80558;-74
2021/09/15 00:19:58;;;;;;;9.23;4.07;;;17.20;93.60;;;;;;21060713;27;82037;-72
2021/09/15 00:30:00;;;;;;;;;;;17.30;93.70;;;;;;21041448;27;81032;-74
2021/09/15 00:40:03;;;;;;;9.25;4.85;;;17.30;93.60;;;;;;21063134;27;80935;-75
2021/09/15 00:50:06;;;;;;;6.07;3.30;;;17.30;93.80;;;;;;21058444;27;79990;-75
2021/09/15 01:00:10;;;;;;;4.60;1.70;;;17.40;93.90;;;;;;21006340;27;81999;-74
2021/09/15 01:10:15;;;;;;;6.00;2.33;;;17.30;93.80;;;;;;21038484;27;81182;-74
2021/09/15 01:20:17;;;;;;;8.65;3.22;;;17.30;93.80;;;;;;20970080;27;80790;-72
2021/09/15 01:30:20;;;;;;;8.65;3.78;;;17.40;93.90;;;;;;20970602;27;80520;-73
2021/09/15 01:40:23;;;;;;;11.38;3.45;;;17.50;93.80;;;;;;20953090;27;81842;-73
2021/09/15 01:50:32;;;;;;;6.28;2.70;;;17.40;93.70;;;;;;20968970;27;82130;-73
2021/09/15 02:00:47;;;;;;;7.78;3.90;;;17.50;93.80;;;;;;20952272;27;80193;-73
2021/09/15 02:10:54;;;;;;;8.65;3.30;;;17.50;93.80;;;;;;20967178;27;80176;-74
2021/09/15 02:20:58;;;;;;;5.63;3.35;;;17.40;93.60;;;;;;20969207;27;84266;-75
2021/09/15 02:31:03;;;;;;;6.88;2.75;;;17.30;93.60;;;;;;20966175;27;80742;-72
2021/09/15 02:41:07;;;;;;;7.10;3.20;;;17.40;93.70;;;;;;20948379;27;81946;-72
2021/09/15 02:51:20;;;;;;;7.75;3.35;;;17.50;93.80;;;;;;20965977;27;81007;-72
2021/09/15 03:01:31;;;;;;;6.05;2.38;;;17.60;93.80;;;;;;20942558;27;81018;-73
2021/09/15 03:11:52;;;;;;;7.50;3.47;;;17.50;93.70;;;;;;20979534;27;81086;-73
2021/09/15 03:22:02;;;;;;;7.30;3.42;;;17.60;93.80;;;;;;20979363;27;80824;-72
2021/09/15 03:32:13;;;;;;;11.77;3.35;;;17.60;93.90;;;;;;20979306;27;81877;-73
2021/09/15 03:42:24;;;;;;;10.73;3.53;;;17.60;93.80;;;;;;20978205;27;81147;-75
2021/09/15 03:52:32;;;;;;;6.57;3.30;;;17.50;93.70;;;;;;20977757;27;81851;-73
2021/09/15 04:02:37;;;;;;;9.25;3.88;;;17.50;93.80;;;;;;20976790;27;81844;-72
2021/09/15 04:12:43;;;;;;;6.05;3.45;;;17.50;93.80;;;;;;20976043;27;82244;-74
2021/09/15 04:22:52;;;;;;;13.18;3.75;;;17.60;93.80;;;;;;20957927;27;81006;-75
2021/09/15 04:33:01;;;;;;;7.57;2.80;;;17.50;93.80;;;;;;20966989;27;80992;-75
2021/09/15 04:43:06;;;;;;;9.27;3.50;;;17.50;93.80;;;;;;20966915;27;80727;-75
2021/09/15 04:53:13;;;;;;;11.45;3.03;;;17.50;93.90;;;;;;20973525;27;80679;-75
2021/09/15 05:03:17;;;;;;;14.63;3.50;;;17.50;93.90;;;;;;20971842;27;80720;-73
2021/09/15 05:13:19;;;;;;;6.70;2.03;;;17.40;93.80;;;;;;20973059;27;80755;-74
2021/09/15 05:23:22;;;;;;;13.18;2.17;;;17.20;93.70;;;;;;21003226;27;81487;-73
2021/09/15 05:33:26;;;;;;;8.05;2.08;;;17.40;93.90;;;;;;21037790;27;81987;-73
2021/09/15 05:43:28;;;;;;;8.85;2.63;;;17.40;93.90;;;;;;21037151;27;82288;-73
2021/09/15 05:53:31;;;;;;;6.68;1.92;;;17.40;93.90;;;;;;21042239;27;80149;-73
2021/09/15 06:03:34;;;;;;;10.38;2.80;;;17.40;93.80;;;;;;21041509;27;82148;-73
2021/09/15 06:13:37;;;;;;;8.15;2.33;;;17.50;93.80;;;;;;21036495;27;81878;-62
2021/09/15 06:23:39;;;;;;;4.73;2.00;;;17.50;93.90;;;;;;21031958;27;81278;-68
2021/09/15 06:33:43;;;;;;;6.35;2.92;;;17.50;93.90;;;;;;21043083;27;81329;-63
2021/09/15 06:43:46;;;;;;;9.48;2.72;;;17.70;93.90;;;;;;21055232;27;81853;-65
2021/09/15 06:53:49;;;;;;;7.63;2.35;;;17.70;93.90;;;;;;21047141;27;80826;-69
2021/09/15 07:03:53;;;;;;;13.20;3.00;;;17.80;93.90;;;;;;21049034;27;82103;-70
2021/09/15 07:14:03;;;;;;;6.90;2.70;;;17.90;94.00;;;;;;21046417;27;81364;-69
2021/09/15 07:24:05;;;;;;;12.13;2.83;;;18.20;94.10;;;;;;21052604;27;82528;-71
2021/09/15 07:34:08;;;;;;;6.22;2.60;;;18.20;94.00;;;;;;21046213;27;81950;-70
2021/09/15 07:44:13;;;;;;;6.30;3.45;;;18.30;94.10;;;;;;21042303;27;80512;-70
2021/09/15 07:54:15;;;;;;;7.30;3.97;;;19.00;94.70;;;;;;21050385;27;81466;-70
2021/09/15 08:04:17;;;;;;;7.07;3.40;;;19.30;94.50;;;;;;21050882;27;81346;-68
2021/09/15 08:14:23;;;;;;;6.18;2.85;;;19.50;94.50;;;;;;21030378;27;81980;-69
2021/09/15 08:24:26;;;;;;;6.18;3.22;;;19.70;94.30;;;;;;21048200;27;81709;-69
2021/09/15 08:34:29;;;;;;;4.68;2.63;;;19.20;93.70;;;;;;21045646;27;81221;-69
2021/09/15 08:44:33;;;;;;;8.95;2.40;;;18.90;93.90;;;;;;21043823;27;81375;-70
2021/09/15 08:54:36;;;;;;;6.95;3.30;;;19.80;94.80;;;;;;21046843;27;80876;-69
2021/09/15 09:05:06;;;;;;;11.77;3.80;;;20.70;95.20;;;;;;21047236;27;81702;-70
2021/09/15 09:15:27;;;;;;;6.72;2.85;;;21.80;93.60;;;;;;21044764;27;81814;-69
2021/09/15 09:25:46;;;;;;;10.65;4.10;;;21.70;92.80;;;;;;21043799;27;82744;-69
2021/09/15 09:35:58;;;;;;;10.02;3.20;;;21.20;90.80;;;;;;21038114;27;80885;-69
2021/09/15 09:46:01;;;;;;;;;;;21.70;93.60;;;;;;21042276;27;81394;-70
2021/09/15 09:56:04;;;;;;;7.03;2.60;;;23.90;95.60;;;;;;21061644;27;80497;-70
2021/09/15 10:06:09;;;;;;;7.10;3.55;;;24.20;93.80;;;;;;21042336;27;81463;-71
2021/09/15 10:16:13;;;;;;;3.78;1.55;;;23.90;91.80;;;;;;21039070;27;82330;-69
2021/09/15 10:26:37;;;;;;;5.18;1.55;;;26.00;93.90;;;;;;21035915;27;81752;-71
2021/09/15 10:36:40;;;;;;;3.85;1.10;;;26.80;88.90;;;;;;21039352;27;80943;-71
2021/09/15 10:46:45;;;;;;;3.20;1.00;;;26.40;81.30;;;;;;21039683;27;81869;-70
2021/09/15 10:57:18;;;;;;;3.47;1.20;;;26.00;80.10;;;;;;21037546;27;81576;-69
2021/09/15 11:07:59;;;;;;;5.38;1.73;;;29.00;89.60;;;;;;21039564;27;80761;-70
2021/09/15 11:18:01;;;;;;;4.75;1.08;;;34.70;86.60;;;;;;20991972;27;82779;-69
2021/09/15 11:28:18;;;;;;;3.03;0.80;;;37.00;54.50;;;;;;21051347;27;81270;-70
2021/09/15 11:38:27;;;;;;;5.13;1.13;;;30.00;78.90;;;;;;21051215;27;81502;-70
2021/09/15 11:48:30;;;;;;;4.38;0.98;;;35.70;53.00;;;;;;21049022;27;81492;-70
2021/09/15 11:58:31;;;;;;;2.22;0.90;;;40.40;31.70;;;;;;21054023;27;81914;-69
2021/09/15 12:08:33;;;;;;;2.88;0.93;;;37.20;32.20;;;;;;21043233;27;81823;-70
2021/09/15 12:18:43;;;;;;;1.75;0.68;;;40.70;27.20;;;;;;21050606;27;81417;-71
2021/09/15 12:28:59;;;;;;;3.13;0.70;;;35.40;31.60;;;;;;21049308;27;81060;-69
2021/09/15 12:39:09;;;;;;;4.47;0.88;;;32.00;35.40;;;;;;21047009;27;81500;-69
2021/09/15 12:49:12;;;;;;;2.25;0.93;;;31.50;36.10;;;;;;21044729;27;80824;-70
2021/09/15 12:59:28;;;;;;;2.10;0.40;;;29.90;38.60;;;;;;21043067;27;81756;-75
2021/09/15 13:09:29;;;;;;;2.05;0.70;;;32.90;33.60;;;;;;21025891;27;81851;-75
2021/09/15 13:19:32;;;;;;;1.75;0.63;;;31.00;37.80;;;;;;21053185;27;82279;-76
2021/09/15 13:29:35;;;;;;;4.50;1.02;;;28.70;39.20;;;;;;21012068;27;81881;-76
2021/09/15 13:39:37;;;;;;;6.07;1.00;;;27.20;42.90;;;;;;21058166;27;81811;-70
2021/09/15 13:49:41;;;;;;;4.53;1.10;;;25.80;47.30;;;;;;21046806;27;80969;-72
2021/09/15 13:59:43;;;;;;;2.45;0.60;;;25.20;50.70;;;;;;21050029;27;81938;-71
2021/09/15 14:09:45;;;;;;;3.55;0.95;;;25.50;49.60;;;;;;20988330;27;81985;-72
2021/09/15 14:19:47;;;;;;;1.73;0.60;;;28.90;42.90;;;;;;20974667;27;80829;-73
2021/09/15 14:29:48;;;;;;;1.45;0.60;;;36.00;30.40;;;;;;21003599;27;80051;-72
2021/09/15 14:39:50;;;;;;;2.90;1.08;;;39.90;26.20;;;;;;21005655;27;81743;-72
2021/09/15 14:49:52;;;;;;;1.95;1.08;;;42.30;23.60;;;;;;20994155;27;80225;-72
2021/09/15 14:59:53;;;;;;;1.52;0.80;;;37.80;27.70;;;;;;21003113;27;81761;-72
2021/09/15 15:09:55;;;;;;;1.95;0.70;;;35.50;30.30;;;;;;20973184;27;80799;-76
2021/09/15 15:19:57;;;;;;;1.52;0.70;;;31.00;35.70;;;;;;20973885;27;82221;-74
2021/09/15 15:29:59;;;;;;;3.13;0.98;;;32.40;34.10;;;;;;20969037;27;80943;-74
2021/09/15 15:40:03;;;;;;;1.30;0.90;;;37.20;27.30;;;;;;20971246;27;81094;-77
2021/09/15 15:50:07;;;;;;;1.40;0.70;;;33.80;32.20;;;;;;20971224;27;80761;-76
2021/09/15 16:00:10;;;;;;;1.00;0.50;;;34.40;31.10;;;;;;20970730;27;80678;-76
2021/09/15 16:10:12;;;;;;;3.90;0.77;;;35.10;30.10;;;;;;20968915;27;81886;-74
2021/09/15 16:20:13;;;;;;;1.77;0.63;;;32.40;33.80;;;;;;20960605;27;82270;-76
2021/09/15 16:30:16;;;;;;;0.95;0.40;;;30.00;37.00;;;;;;20959640;27;81074;-75
2021/09/15 16:40:18;;;;;;;3.25;0.60;;;29.00;37.80;;;;;;20968580;27;81743;-74
2021/09/15 16:50:20;;;;;;;0.88;0.35;;;27.50;39.90;;;;;;20966946;27;80805;-72
2021/09/15 17:00:22;;;;;;;0.75;0.38;;;26.60;42.10;;;;;;20964228;27;81095;-72
2021/09/15 17:10:25;;;;;;;1.77;0.30;;;26.20;42.50;;;;;;20967770;27;80798;-73
2021/09/15 17:20:29;;;;;;;0.77;0.40;;;26.00;43.20;;;;;;20898634;27;80889;-75
2021/09/15 17:30:30;;;;;;;0.68;0.30;;;25.90;44.40;;;;;;20887877;28;80746;-75
2021/09/15 17:40:32;;;;;;;1.17;0.57;;;25.70;44.00;;;;;;20897886;27;80760;-74
2021/09/15 17:50:38;;;;;;;1.70;0.70;;;25.40;44.60;;;;;;20887985;28;80748;-74
2021/09/15 18:00:42;;;;;;;2.78;0.43;;;24.60;47.50;;;;;;20885569;28;80790;-72
2021/09/15 18:10:49;;;;;;;1.17;0.57;;;24.00;47.80;;;;;;20866883;28;81874;-72
2021/09/15 18:20:51;;;;;;;2.83;0.90;;;23.60;48.30;;;;;;20884903;28;82146;-72
2021/09/15 18:30:54;;;;;;;2.97;0.73;;;23.30;49.80;;;;;;20904572;27;81124;-70
2021/09/15 18:40:57;;;;;;;1.38;0.63;;;23.10;50.50;;;;;;20964022;27;80842;-71
2021/09/15 18:51:00;;;;;;;1.90;0.73;;;22.90;50.70;;;;;;20957321;27;80948;-74
2021/09/15 19:01:02;;;;;;;2.63;0.60;;;22.80;51.50;;;;;;20950958;27;81834;-72
2021/09/15 19:11:04;;;;;;;2.42;0.90;;;22.50;52.80;;;;;;20969242;27;82158;-73
2021/09/15 19:21:08;;;;;;;2.75;0.85;;;22.40;54.10;;;;;;20968510;27;82429;-73
2021/09/15 19:31:16;;;;;;;3.80;1.27;;;22.20;55.40;;;;;;20964674;27;81272;-73
2021/09/15 19:41:19;;;;;;;4.47;1.20;;;22.10;57.10;;;;;;20943403;27;80995;-74
2021/09/15 19:51:20;;;;;;;3.58;1.80;;;22.00;57.90;;;;;;20964209;27;81036;-73
2021/09/15 20:01:25;;;;;;;4.07;1.75;;;21.90;58.50;;;;;;20965183;27;81865;-73
2021/09/15 20:11:28;;;;;;;2.65;0.98;;;21.80;59.20;;;;;;20962397;27;81219;-71
2021/09/15 20:21:32;;;;;;;2.50;1.33;;;21.70;60.10;;;;;;20964553;27;81786;-71
2021/09/15 20:31:35;;;;;;;3.35;1.13;;;21.50;60.80;;;;;;20958207;27;81499;-72
2021/09/15 20:41:38;;;;;;;3.83;1.48;;;21.40;61.50;;;;;;20960971;27;80724;-73
2021/09/15 20:51:40;;;;;;;5.00;2.60;;;21.20;62.30;;;;;;20960897;27;81863;-72
2021/09/15 21:01:42;;;;;;;4.03;1.40;;;21.00;63.30;;;;;;20959236;27;80675;-72
2021/09/15 21:11:44;;;;;;;4.47;1.17;;;20.90;63.60;;;;;;20942806;27;81118;-73
2021/09/15 21:21:48;;;;;;;5.78;2.30;;;20.80;64.10;;;;;;20972745;27;81765;-72
2021/09/15 21:31:50;;;;;;;4.38;1.50;;;20.70;64.90;;;;;;20892456;27;81723;-71
2021/09/15 21:41:54;;;;;;;3.15;1.10;;;20.60;65.50;;;;;;20956330;27;82254;-74
2021/09/15 21:51:55;;;;;;;2.83;1.50;;;20.60;66.10;;;;;;20891362;27;81704;-74
2021/09/15 22:01:57;;;;;;;3.22;1.20;;;20.80;65.70;;;;;;20919823;27;81366;-74
2021/09/15 22:11:59;;;;;;;9.27;3.20;;;20.70;65.60;;;;;;20885568;27;81623;-70
2021/09/15 22:22:01;;;;;;;2.17;0.80;;;20.70;65.90;;;;;;20885845;28;81833;-73
2021/09/15 22:32:04;;;;;;;4.82;1.55;;;20.50;66.00;;;;;;20884937;28;81806;-71
2021/09/15 22:42:05;;;;;;;;;;;20.40;66.20;;;;;;20898549;27;80675;-73
2021/09/15 22:52:08;;;;;;;4.33;1.40;;;20.30;66.10;;;;;;20906024;28;80719;-73
2021/09/15 23:02:11;;;;;;;2.10;1.05;;;20.30;66.40;;;;;;20883336;28;80043;-74
2021/09/15 23:12:13;;;;;;;3.27;1.20;;;20.30;66.60;;;;;;20883967;27;81864;-73
2021/09/15 23:22:16;;;;;;;1.95;1.17;;;20.20;66.60;;;;;;20896088;28;81847;-73
2021/09/15 23:32:19;;;;;;;2.22;0.88;;;20.20;66.90;;;;;;20878025;28;81761;-73
2021/09/15 23:42:22;;;;;;;3.70;1.45;;;20.20;66.70;;;;;;20895119;28;81771;-72
2021/09/15 23:52:28;;;;;;;4.93;1.33;;;20.40;66.40;;;;;;20894100;28;81296;-72
